createdAt,value
2023-03-11T00:01:44.011Z,1.88
2023-03-11T00:03:43.119Z,1.88
2023-03-11T00:05:44.003Z,1.88
2023-03-11T00:07:43.145Z,1.88
2023-03-11T00:09:43.661Z,1.88
2023-03-11T00:11:42.993Z,1.88
2023-03-11T00:13:43.803Z,1.88
2023-03-11T00:15:43.318Z,1.88
2023-03-11T00:17:44.082Z,1.88
2023-03-11T00:19:43.209Z,1.88
2023-03-11T00:21:43.908Z,1.88
2023-03-11T00:23:43.417Z,1.88
2023-03-11T00:25:43.673Z,1.88
2023-03-11T00:27:42.987Z,1.88
2023-03-11T00:29:43.489Z,1.88
2023-03-11T00:31:43.388Z,1.88
2023-03-11T00:33:43.676Z,1.88
2023-03-11T00:35:43.073Z,1.88
2023-03-11T00:37:43.623Z,1.88
2023-03-11T00:39:43.000Z,1.88
2023-03-11T00:41:43.475Z,1.88
2023-03-11T00:43:43.008Z,1.88
2023-03-11T00:45:43.726Z,1.88
2023-03-11T00:47:43.402Z,1.88
2023-03-11T00:49:43.500Z,1.88
2023-03-11T00:51:45.480Z,1.88
2023-03-11T00:53:43.396Z,1.88
2023-03-11T00:55:42.880Z,1.88
2023-03-11T00:57:43.499Z,1.88
2023-03-11T00:59:43.105Z,1.88
2023-03-11T01:01:46.724Z,1.88
2023-03-11T01:03:43.557Z,1.88
2023-03-11T01:05:43.484Z,1.88
2023-03-11T01:07:56.653Z,1.88
2023-03-11T01:09:43.210Z,1.88
2023-03-11T01:11:43.672Z,1.88
2023-03-11T01:13:43.230Z,1.88
2023-03-11T01:15:43.817Z,1.88
2023-03-11T01:17:42.936Z,1.88
2023-03-11T01:19:43.282Z,1.88
2023-03-11T01:21:43.173Z,1.88
2023-03-11T01:23:43.371Z,1.88
2023-03-11T01:25:42.774Z,1.88
2023-03-11T01:27:43.503Z,1.88
2023-03-11T01:29:43.160Z,1.88
2023-03-11T01:31:44.001Z,1.88
2023-03-11T01:33:43.298Z,1.88
2023-03-11T01:35:43.986Z,1.88
2023-03-11T01:37:43.382Z,1.88
2023-03-11T01:39:43.469Z,1.88
2023-03-11T01:41:42.972Z,1.88
2023-03-11T01:43:43.489Z,1.88
2023-03-11T01:45:42.743Z,1.88
2023-03-11T01:47:43.717Z,1.88
2023-03-11T01:49:43.687Z,1.88
2023-03-11T01:51:43.116Z,1.88
2023-03-11T01:53:43.368Z,1.88
2023-03-11T01:55:42.881Z,1.88
2023-03-11T01:57:43.613Z,1.88
2023-03-11T01:59:42.967Z,1.88
2023-03-11T02:01:49.435Z,1.88
2023-03-11T02:03:44.241Z,1.88
2023-03-11T02:05:43.205Z,1.88
2023-03-11T02:07:43.793Z,1.88
2023-03-11T02:09:43.169Z,1.88
2023-03-11T02:11:43.751Z,1.88
2023-03-11T02:13:43.185Z,1.88
2023-03-11T02:15:43.667Z,1.88
2023-03-11T02:17:43.130Z,1.88
2023-03-11T02:19:43.499Z,1.88
2023-03-11T02:21:43.107Z,1.88
2023-03-11T02:23:43.577Z,1.88
2023-03-11T02:25:43.428Z,1.88
2023-03-11T02:27:43.539Z,1.88
2023-03-11T02:29:42.930Z,1.88
2023-03-11T02:31:44.001Z,1.88
2023-03-11T02:33:42.894Z,1.88
2023-03-11T02:35:43.581Z,1.88
2023-03-11T02:37:43.014Z,1.88
2023-03-11T02:39:43.199Z,1.88
2023-03-11T02:41:43.020Z,1.88
2023-03-11T02:43:43.421Z,1.88
2023-03-11T02:45:42.998Z,1.88
2023-03-11T02:47:43.538Z,1.88
2023-03-11T02:49:42.888Z,1.88
2023-03-11T02:51:43.340Z,1.88
2023-03-11T02:53:42.763Z,1.88
2023-03-11T02:55:43.004Z,1.88
2023-03-11T02:57:43.589Z,1.88
2023-03-11T02:59:43.132Z,1.88
2023-03-11T03:01:47.331Z,1.88
2023-03-11T03:03:42.880Z,1.88
2023-03-11T03:05:43.497Z,1.88
2023-03-11T03:07:42.936Z,1.88
2023-03-11T03:09:43.242Z,1.88
2023-03-11T03:11:42.854Z,1.88
2023-03-11T03:13:43.535Z,1.88
2023-03-11T03:15:42.934Z,1.88
2023-03-11T03:17:44.477Z,1.88
2023-03-11T03:19:43.633Z,1.88
2023-03-11T03:21:43.416Z,1.88
2023-03-11T03:23:43.701Z,1.88
2023-03-11T03:25:42.986Z,1.88
2023-03-11T03:27:43.689Z,1.88
2023-03-11T03:29:43.092Z,1.88
2023-03-11T03:31:43.703Z,1.88
2023-03-11T03:33:43.391Z,1.88
2023-03-11T03:35:43.775Z,1.88
2023-03-11T03:37:43.382Z,1.88
2023-03-11T03:39:43.518Z,1.88
2023-03-11T03:41:43.141Z,1.88
2023-03-11T03:43:43.629Z,1.88
2023-03-11T03:45:43.205Z,1.88
2023-03-11T03:47:43.768Z,1.88
2023-03-11T03:49:43.041Z,1.88
2023-03-11T03:51:43.697Z,1.88
2023-03-11T03:53:43.055Z,1.88
2023-03-11T03:55:43.440Z,1.88
2023-03-11T03:57:43.079Z,1.88
2023-03-11T03:59:43.789Z,1.88
2023-03-11T04:01:47.400Z,1.88
2023-03-11T04:03:44.247Z,1.88
2023-03-11T04:05:43.142Z,1.88
2023-03-11T04:07:43.468Z,1.88
2023-03-11T04:09:43.107Z,1.88
2023-03-11T04:11:43.642Z,1.88
2023-03-11T04:13:43.125Z,1.88
2023-03-11T04:15:43.707Z,1.88
2023-03-11T04:17:43.673Z,1.88
2023-03-11T04:19:43.498Z,1.88
2023-03-11T04:21:43.212Z,1.88
2023-03-11T04:23:43.567Z,1.88
2023-03-11T04:25:42.995Z,1.88
2023-03-11T04:27:43.384Z,1.88
2023-03-11T04:29:43.049Z,1.88
2023-03-11T04:31:44.195Z,1.88
2023-03-11T04:33:43.507Z,1.88
2023-03-11T04:35:43.680Z,1.88
2023-03-11T04:37:43.096Z,1.88
2023-03-11T04:39:43.413Z,1.88
2023-03-11T04:41:43.003Z,1.88
2023-03-11T04:43:45.624Z,1.88
2023-03-11T04:45:43.101Z,1.88
2023-03-11T04:47:43.762Z,1.88
2023-03-11T04:49:43.349Z,1.88
2023-03-11T04:51:45.046Z,1.88
2023-03-11T04:53:43.489Z,1.88
2023-03-11T04:55:42.988Z,1.88
2023-03-11T04:57:43.649Z,1.88
2023-03-11T04:59:43.033Z,1.88
2023-03-11T05:01:47.750Z,1.88
2023-03-11T05:03:43.668Z,1.88
2023-03-11T05:05:44.279Z,1.88
2023-03-11T05:07:42.993Z,1.88
2023-03-11T05:09:43.387Z,1.88
2023-03-11T05:11:42.911Z,1.88
2023-03-11T05:13:43.596Z,1.88
2023-03-11T05:15:43.104Z,1.88
2023-03-11T05:17:43.884Z,1.88
2023-03-11T05:19:43.084Z,1.88
2023-03-11T05:21:46.093Z,1.88
2023-03-11T05:23:43.480Z,1.88
2023-03-11T05:25:42.748Z,1.88
2023-03-11T05:27:45.032Z,1.88
2023-03-11T05:29:43.289Z,1.88
2023-03-11T05:31:43.923Z,1.88
2023-03-11T05:33:43.294Z,1.88
2023-03-11T05:35:43.920Z,1.88
2023-03-11T05:37:43.295Z,1.88
2023-03-11T05:39:43.475Z,1.88
2023-03-11T05:41:43.100Z,1.88
2023-03-11T05:43:43.662Z,1.88
2023-03-11T05:45:43.095Z,1.88
2023-03-11T05:47:44.056Z,1.88
2023-03-11T05:49:43.016Z,1.88
2023-03-11T05:51:43.552Z,1.88
2023-03-11T05:53:43.293Z,1.88
2023-03-11T05:55:43.642Z,1.88
2023-03-11T05:57:43.102Z,1.88
2023-03-11T05:59:43.964Z,1.88
2023-03-11T06:01:46.760Z,1.88
2023-03-11T06:03:43.584Z,1.88
2023-03-11T06:05:47.748Z,1.88
2023-03-11T06:07:43.692Z,1.88
2023-03-11T06:09:42.968Z,1.88
2023-03-11T06:11:45.771Z,1.88
2023-03-11T06:13:43.073Z,1.88
2023-03-11T06:15:43.509Z,1.88
2023-03-11T06:17:43.833Z,1.88
2023-03-11T06:19:43.617Z,1.88
2023-03-11T06:21:43.585Z,1.88
2023-03-11T06:23:46.092Z,1.88
2023-03-11T06:25:43.145Z,1.88
2023-03-11T06:27:43.898Z,1.88
2023-03-11T06:29:43.372Z,1.88
2023-03-11T06:31:43.845Z,1.88
2023-03-11T06:33:43.472Z,1.88
2023-03-11T06:35:43.489Z,1.88
2023-03-11T06:37:43.129Z,1.88
2023-03-11T06:39:45.040Z,1.88
2023-03-11T06:41:42.955Z,1.88
2023-03-11T06:43:43.401Z,1.88
2023-03-11T06:45:43.495Z,1.88
2023-03-11T06:47:43.368Z,1.88
2023-03-11T06:49:42.761Z,1.88
2023-03-11T06:51:44.823Z,1.88
2023-03-11T06:53:42.951Z,1.88
2023-03-11T06:55:43.320Z,1.88
2023-03-11T06:57:43.541Z,1.88
2023-03-11T06:59:43.073Z,1.88
2023-03-11T07:01:51.442Z,1.88
2023-03-11T07:03:43.704Z,1.88
2023-03-11T07:05:43.317Z,1.88
2023-03-11T07:07:43.544Z,1.88
2023-03-11T07:09:42.946Z,1.88
2023-03-11T07:11:43.670Z,1.88
2023-03-11T07:13:42.997Z,1.88
2023-03-11T07:15:43.281Z,1.88
2023-03-11T07:17:43.903Z,1.88
2023-03-11T07:19:43.507Z,1.88
2023-03-11T07:21:42.981Z,1.88
2023-03-11T07:23:43.311Z,1.88
2023-03-11T07:25:42.978Z,1.88
2023-03-11T07:27:43.501Z,1.88
2023-03-11T07:29:43.724Z,1.88
2023-03-11T07:31:43.820Z,1.88
2023-03-11T07:33:45.640Z,1.88
2023-03-11T07:35:43.218Z,1.88
2023-03-11T07:37:43.894Z,1.88
2023-03-11T07:39:43.069Z,1.88
2023-03-11T07:41:43.624Z,1.88
2023-03-11T07:43:43.575Z,1.88
2023-03-11T07:45:43.487Z,1.88
2023-03-11T07:47:43.477Z,1.88
2023-03-11T07:49:43.533Z,1.88
2023-03-11T07:51:43.077Z,1.88
2023-03-11T07:53:43.753Z,1.88
2023-03-11T07:55:43.233Z,1.88
2023-03-11T07:57:43.600Z,1.88
2023-03-11T07:59:43.143Z,1.88
2023-03-11T08:01:47.343Z,1.88
2023-03-11T08:03:43.529Z,1.88
2023-03-11T08:05:45.037Z,1.88
2023-03-11T08:07:43.575Z,1.88
2023-03-11T08:09:43.162Z,1.88
2023-03-11T08:11:43.378Z,1.88
2023-03-11T08:13:42.796Z,1.88
2023-03-11T08:15:43.201Z,1.88
2023-03-11T08:17:43.223Z,1.88
2023-03-11T08:19:43.334Z,1.88
2023-03-11T08:21:42.580Z,1.88
2023-03-11T08:23:54.940Z,1.88
2023-03-11T08:25:43.703Z,1.88
2023-03-11T08:27:42.948Z,1.88
2023-03-11T08:29:43.272Z,1.88
2023-03-11T08:31:43.469Z,1.88
2023-03-11T08:33:44.129Z,1.88
2023-03-11T08:35:44.443Z,1.88
2023-03-11T08:37:46.850Z,1.88
2023-03-11T08:39:44.234Z,1.88
2023-03-11T08:41:43.354Z,1.88
2023-03-11T08:43:44.763Z,1.88
2023-03-11T08:45:43.335Z,1.88
2023-03-11T08:47:44.293Z,1.88
2023-03-11T08:49:46.202Z,1.88
2023-03-11T08:52:00.704Z,1.88
2023-03-11T08:53:43.320Z,1.88
2023-03-11T08:55:43.677Z,1.88
2023-03-11T08:57:43.034Z,1.88
2023-03-11T08:59:43.326Z,1.88
2023-03-11T09:01:46.702Z,1.88
2023-03-11T09:03:43.597Z,1.88
2023-03-11T09:05:43.570Z,1.88
2023-03-11T09:07:43.091Z,1.88
2023-03-11T09:09:46.575Z,1.88
2023-03-11T09:11:43.157Z,1.88
2023-03-11T09:13:43.329Z,1.88
2023-03-11T09:15:42.912Z,1.88
2023-03-11T09:17:43.809Z,1.88
2023-03-11T09:19:42.647Z,1.88
2023-03-11T09:21:43.363Z,1.88
2023-03-11T09:23:44.300Z,1.88
2023-03-11T09:25:43.124Z,1.88
2023-03-11T09:27:43.281Z,1.88
2023-03-11T09:29:42.650Z,121.38
2023-03-11T09:31:44.100Z,121.38
2023-03-11T09:33:43.411Z,121.38
2023-03-11T09:35:46.489Z,10710.1
2023-03-11T09:37:43.607Z,10710.1
2023-03-11T09:39:43.202Z,10710.1
2023-03-11T09:41:57.082Z,11.29
2023-03-11T09:43:43.127Z,11.29
2023-03-11T09:45:43.629Z,11.29
2023-03-11T09:47:43.423Z,11.29
2023-03-11T09:49:43.345Z,11.29
2023-03-11T09:51:43.167Z,11.29
2023-03-11T09:53:43.807Z,4.63
2023-03-11T09:55:43.673Z,4.63
2023-03-11T09:57:42.957Z,4.63
2023-03-11T09:59:43.285Z,1380.01
2023-03-11T10:01:47.105Z,1380.01
2023-03-11T10:03:45.113Z,1380.01
2023-03-11T10:05:43.323Z,3.08
2023-03-11T10:07:42.682Z,3.08
2023-03-11T10:09:43.218Z,3.08
2023-03-11T10:11:43.876Z,2.22
2023-03-11T10:13:42.849Z,2.22
2023-03-11T10:15:43.476Z,2.22
2023-03-11T10:17:43.810Z,2.17
2023-03-11T10:19:43.757Z,2.17
2023-03-11T10:21:45.394Z,2.17
2023-03-11T10:23:43.405Z,2.03
2023-03-11T10:25:43.784Z,2.03
2023-03-11T10:27:43.322Z,2.03
2023-03-11T10:29:43.583Z,732.85
2023-03-11T10:31:43.559Z,732.85
2023-03-11T10:33:46.538Z,732.85
2023-03-11T10:35:43.195Z,1.88
2023-03-11T10:38:00.473Z,1.88
2023-03-11T10:39:43.874Z,1.88
2023-03-11T10:41:44.121Z,650.68
2023-03-11T10:43:43.383Z,650.68
2023-03-11T10:45:44.051Z,650.68
2023-03-11T10:47:43.536Z,1.69
2023-03-11T10:49:44.232Z,1.69
2023-03-11T10:51:44.665Z,1.69
2023-03-11T10:53:43.477Z,575.29
2023-03-11T10:55:44.134Z,575.29
2023-03-11T10:57:46.550Z,575.29
2023-03-11T10:59:43.473Z,1.53
2023-03-11T11:01:47.859Z,1.53
2023-03-11T11:03:43.449Z,1.53
2023-03-11T11:05:43.999Z,543.85
2023-03-11T11:07:44.376Z,543.85
2023-03-11T11:09:43.525Z,543.85
2023-03-11T11:11:42.948Z,536.18
2023-03-11T11:13:43.325Z,536.18
2023-03-11T11:15:43.044Z,536.18
2023-03-11T11:17:43.975Z,430
2023-03-11T11:19:45.839Z,430
2023-03-11T11:21:43.943Z,430
2023-03-11T11:23:43.428Z,404.35
2023-03-11T11:25:43.789Z,404.35
2023-03-11T11:27:43.672Z,404.35
2023-03-11T11:29:43.331Z,430
2023-03-11T11:31:44.122Z,430
2023-03-11T11:33:43.503Z,430
2023-03-11T11:35:43.799Z,1.15
2023-03-11T11:37:43.700Z,1.15
2023-03-11T11:39:43.971Z,1.15
2023-03-11T11:41:43.327Z,1.16
2023-03-11T11:43:43.689Z,1.16
2023-03-11T11:45:44.295Z,1.16
2023-03-11T11:47:44.318Z,398.11
2023-03-11T11:49:44.130Z,398.11
2023-03-11T11:51:44.396Z,398.11
2023-03-11T11:53:44.598Z,0.99
2023-03-11T11:55:43.679Z,0.99
2023-03-11T11:57:44.033Z,0.99
2023-03-11T11:59:43.608Z,0.95
2023-03-11T12:01:50.420Z,0.95
2023-03-11T12:03:44.006Z,0.95
2023-03-11T12:05:45.012Z,350.49
2023-03-11T12:07:44.246Z,350.49
2023-03-11T12:09:44.247Z,350.49
2023-03-11T12:12:04.320Z,344.82
2023-03-11T12:13:43.621Z,344.82
2023-03-11T12:15:43.298Z,344.82
2023-03-11T12:17:43.836Z,0.89
2023-03-11T12:19:42.960Z,0.89
2023-03-11T12:21:44.201Z,0.89
2023-03-11T12:23:42.917Z,312.11
2023-03-11T12:25:43.496Z,312.11
2023-03-11T12:27:42.949Z,312.11
2023-03-11T12:29:43.492Z,0.79
2023-03-11T12:31:44.384Z,0.79
2023-03-11T12:33:43.671Z,0.79
2023-03-11T12:35:45.491Z,281.54
2023-03-11T12:37:43.793Z,281.54
2023-03-11T12:39:42.912Z,281.54
2023-03-11T12:41:43.856Z,271.81
2023-03-11T12:43:43.116Z,271.81
2023-03-11T12:45:43.437Z,271.81
2023-03-11T12:47:46.932Z,0.7
2023-03-11T12:49:43.360Z,0.7
2023-03-11T12:51:43.183Z,0.7
2023-03-11T12:53:43.222Z,0.68
2023-03-11T12:55:43.637Z,0.68
2023-03-11T12:57:43.191Z,0.68
2023-03-11T12:59:43.831Z,243.95
2023-03-11T13:01:47.965Z,243.95
2023-03-11T13:03:45.926Z,243.95
2023-03-11T13:05:43.076Z,0.64
2023-03-11T13:07:43.413Z,0.64
2023-03-11T13:09:43.200Z,0.64
2023-03-11T13:11:43.424Z,235.1
2023-03-11T13:13:43.019Z,235.1
2023-03-11T13:15:47.052Z,235.1
2023-03-11T13:17:43.326Z,0.65
2023-03-11T13:19:43.185Z,0.65
2023-03-11T13:21:45.485Z,0.65
2023-03-11T13:23:43.488Z,0.68
2023-03-11T13:25:42.934Z,0.68
2023-03-11T13:27:43.315Z,0.68
2023-03-11T13:29:42.828Z,0.7
2023-03-11T13:31:43.655Z,0.7
2023-03-11T13:33:43.690Z,0.7
2023-03-11T13:35:43.315Z,0.68
2023-03-11T13:37:43.724Z,0.68
2023-03-11T13:39:43.094Z,0.68
2023-03-11T13:41:43.702Z,243.95
2023-03-11T13:43:43.253Z,243.95
2023-03-11T13:45:43.817Z,243.95
2023-03-11T13:47:43.317Z,0.66
2023-03-11T13:49:45.376Z,0.66
2023-03-11T13:51:43.170Z,0.66
2023-03-11T13:53:43.559Z,0.68
2023-03-11T13:55:45.959Z,0.68
2023-03-11T13:57:43.788Z,0.68
2023-03-11T13:59:43.071Z,0.71
2023-03-11T14:01:48.729Z,0.71
2023-03-11T14:03:43.816Z,0.71
2023-03-11T14:05:43.539Z,257.63
2023-03-11T14:07:43.967Z,257.63
2023-03-11T14:09:42.978Z,257.63
2023-03-11T14:11:43.413Z,0.68
2023-03-11T14:13:43.123Z,0.68
2023-03-11T14:15:43.474Z,0.68
2023-03-11T14:17:43.144Z,0.7
2023-03-11T14:19:43.483Z,0.7
2023-03-11T14:21:43.554Z,0.7
2023-03-11T14:23:46.033Z,0.68
2023-03-11T14:25:43.648Z,0.68
2023-03-11T14:27:43.066Z,0.68
2023-03-11T14:29:44.019Z,235.1
2023-03-11T14:31:43.305Z,235.1
2023-03-11T14:33:44.332Z,235.1
2023-03-11T14:35:43.588Z,0.58
2023-03-11T14:37:42.824Z,0.58
2023-03-11T14:39:43.249Z,0.58
2023-03-11T14:41:42.758Z,0.59
2023-03-11T14:43:43.432Z,0.59
2023-03-11T14:45:42.798Z,0.59
2023-03-11T14:47:43.621Z,222.22
2023-03-11T14:49:43.722Z,222.22
2023-03-11T14:51:43.152Z,222.22
2023-03-11T14:53:43.369Z,235.1
2023-03-11T14:55:43.047Z,235.1
2023-03-11T14:57:43.608Z,235.1
2023-03-11T14:59:54.618Z,253.01
2023-03-11T15:01:46.962Z,253.01
2023-03-11T15:03:43.590Z,253.01
2023-03-11T15:05:45.694Z,262.3
2023-03-11T15:07:45.804Z,262.3
2023-03-11T15:09:42.648Z,262.3
2023-03-11T15:11:43.582Z,0.68
2023-03-11T15:13:42.912Z,0.68
2023-03-11T15:15:43.241Z,0.68
2023-03-11T15:18:01.935Z,248.45
2023-03-11T15:19:43.209Z,248.45
2023-03-11T15:21:43.992Z,248.45
2023-03-11T15:23:43.234Z,267.02
2023-03-11T15:25:46.661Z,267.02
2023-03-11T15:27:43.196Z,267.02
2023-03-11T15:29:43.503Z,0.72
2023-03-11T15:31:43.485Z,0.72
2023-03-11T15:33:44.158Z,0.72
2023-03-11T15:35:43.261Z,0.71
2023-03-11T15:37:42.969Z,0.71
2023-03-11T15:39:43.282Z,0.71
2023-03-11T15:41:54.475Z,0.71
2023-03-11T15:43:43.668Z,0.71
2023-03-11T15:45:43.004Z,0.71
2023-03-11T15:47:43.978Z,0.72
2023-03-11T15:49:43.110Z,0.72
2023-03-11T15:52:11.618Z,0.72
2023-03-11T15:53:43.097Z,257.63
2023-03-11T15:55:52.050Z,257.63
2023-03-11T15:57:49.467Z,257.63
2023-03-11T15:59:43.185Z,0.66
2023-03-11T16:01:48.739Z,0.66
2023-03-11T16:03:43.794Z,0.66
2023-03-11T16:05:44.468Z,0.61
2023-03-11T16:08:12.364Z,0.61
2023-03-11T16:09:43.498Z,0.61
2023-03-11T16:11:46.106Z,0.6
2023-03-11T16:13:43.403Z,0.6
2023-03-11T16:15:43.006Z,0.6
2023-03-11T16:18:01.266Z,0.6
2023-03-11T16:19:43.818Z,0.62
2023-03-11T16:21:43.128Z,0.62
2023-03-11T16:24:01.702Z,230.75
2023-03-11T16:25:42.883Z,230.75
2023-03-11T16:27:45.970Z,230.75
2023-03-11T16:29:54.309Z,230.75
2023-03-11T16:31:44.110Z,0.64
2023-03-11T16:33:43.614Z,0.64
2023-03-11T16:35:43.792Z,0.64
2023-03-11T16:37:43.413Z,235.1
2023-03-11T16:39:43.657Z,235.1
2023-03-11T16:41:43.511Z,235.1
2023-03-11T16:43:43.655Z,0.64
2023-03-11T16:45:43.072Z,0.64
2023-03-11T16:47:43.982Z,0.64
2023-03-11T16:49:43.830Z,230.75
2023-03-11T16:51:45.140Z,230.75
2023-03-11T16:53:43.804Z,230.75
2023-03-11T16:55:43.169Z,0.57
2023-03-11T16:57:43.728Z,0.57
2023-03-11T16:59:43.120Z,0.57
2023-03-11T17:01:47.925Z,0.5
2023-03-11T17:03:53.926Z,0.5
2023-03-11T17:05:43.587Z,0.5
2023-03-11T17:07:43.649Z,0.5
2023-03-11T17:09:42.854Z,0.5
2023-03-11T17:11:43.507Z,0.5
2023-03-11T17:13:42.787Z,0.5
2023-03-11T17:15:57.729Z,0.35
2023-03-11T17:17:43.362Z,0.35
2023-03-11T17:19:43.075Z,0.35
2023-03-11T17:21:43.530Z,123.29
2023-03-11T17:23:42.920Z,123.29
2023-03-11T17:25:43.662Z,123.29
2023-03-11T17:27:43.238Z,0.23
2023-03-11T17:29:43.368Z,0.23
2023-03-11T17:31:55.483Z,0.23
2023-03-11T17:33:47.668Z,0.29
2023-03-11T17:35:42.803Z,0.29
2023-03-11T17:37:43.524Z,0.29
2023-03-11T17:39:46.864Z,0.36
2023-03-11T17:41:43.088Z,0.36
2023-03-11T17:43:43.221Z,0.36
2023-03-11T17:45:58.385Z,147.85
2023-03-11T17:47:43.584Z,147.85
2023-03-11T17:49:46.241Z,147.85
2023-03-11T17:51:44.218Z,161.2
2023-03-11T17:53:45.767Z,161.2
2023-03-11T17:55:43.112Z,161.2
2023-03-11T17:57:55.956Z,0.45
2023-03-11T17:59:43.360Z,0.45
2023-03-11T18:01:47.789Z,0.45
2023-03-11T18:03:44.099Z,0.46
2023-03-11T18:05:43.695Z,0.46
2023-03-11T18:07:43.086Z,0.46
2023-03-11T18:09:43.505Z,178.92
2023-03-11T18:11:42.907Z,178.92
2023-03-11T18:13:43.216Z,178.92
2023-03-11T18:15:43.691Z,178.92
2023-03-11T18:17:43.364Z,178.92
2023-03-11T18:19:43.416Z,178.92
2023-03-11T18:21:42.810Z,182.61
2023-03-11T18:23:43.845Z,182.61
2023-03-11T18:25:43.772Z,182.61
2023-03-11T18:27:42.966Z,182.61
2023-03-11T18:29:43.089Z,182.61
2023-03-11T18:31:43.252Z,0.5
2023-03-11T18:33:43.894Z,0.5
2023-03-11T18:35:42.793Z,0.5
2023-03-11T18:37:43.270Z,190.14
2023-03-11T18:39:43.623Z,190.14
2023-03-11T18:41:42.959Z,190.14
2023-03-11T18:43:43.191Z,190.14
2023-03-11T18:45:44.799Z,190.14
2023-03-11T18:47:43.800Z,190.14
2023-03-11T18:49:42.942Z,190.14
2023-03-11T18:51:43.456Z,190.14
2023-03-11T18:53:43.150Z,190.14
2023-03-11T18:55:43.584Z,197.85
2023-03-11T18:57:42.914Z,197.85
2023-03-11T18:59:43.276Z,197.85
2023-03-11T19:01:47.125Z,0.56
2023-03-11T19:03:43.353Z,0.56
2023-03-11T19:05:44.261Z,0.56
2023-03-11T19:07:42.941Z,213.89
2023-03-11T19:09:43.608Z,213.89
2023-03-11T19:11:43.105Z,213.89
2023-03-11T19:13:58.139Z,222.22
2023-03-11T19:15:43.114Z,222.22
2023-03-11T19:17:46.580Z,222.22
2023-03-11T19:19:48.926Z,0.61
2023-03-11T19:21:43.645Z,0.61
2023-03-11T19:23:42.986Z,0.61
2023-03-11T19:25:57.004Z,0.62
2023-03-11T19:28:02.951Z,0.62
2023-03-11T19:29:43.316Z,0.62
2023-03-11T19:31:43.275Z,235.1
2023-03-11T19:33:45.467Z,235.1
2023-03-11T19:35:42.842Z,235.1
2023-03-11T19:37:43.395Z,0.66
2023-03-11T19:39:42.910Z,0.66
2023-03-11T19:41:43.216Z,0.66
2023-03-11T19:43:43.651Z,0.68
2023-03-11T19:45:43.401Z,0.68
2023-03-11T19:47:44.249Z,0.68
2023-03-11T19:49:43.702Z,257.63
2023-03-11T19:52:00.273Z,257.63
2023-03-11T19:53:43.535Z,257.63
2023-03-11T19:55:43.802Z,0.71
2023-03-11T19:57:42.918Z,0.71
2023-03-11T19:59:43.736Z,0.71
2023-03-11T20:01:47.095Z,271.81
2023-03-11T20:03:44.391Z,271.81
2023-03-11T20:05:43.705Z,271.81
2023-03-11T20:07:44.128Z,271.81
2023-03-11T20:09:43.494Z,271.81
2023-03-11T20:11:44.827Z,271.81
2023-03-11T20:13:58.480Z,0.75
2023-03-11T20:15:43.929Z,0.75
2023-03-11T20:17:43.630Z,0.75
2023-03-11T20:19:43.732Z,0.76
2023-03-11T20:21:45.820Z,0.76
2023-03-11T20:23:43.387Z,0.76
2023-03-11T20:25:44.071Z,0.76
2023-03-11T20:27:45.800Z,0.76
2023-03-11T20:29:44.339Z,0.76
2023-03-11T20:31:44.359Z,0.77
2023-03-11T20:33:44.811Z,0.77
2023-03-11T20:35:43.494Z,0.77
2023-03-11T20:37:44.384Z,0.77
2023-03-11T20:39:44.632Z,0.77
2023-03-11T20:41:43.984Z,0.77
2023-03-11T20:43:43.875Z,0.79
2023-03-11T20:45:44.718Z,0.79
2023-03-11T20:47:44.779Z,0.79
2023-03-11T20:49:44.316Z,0.8
2023-03-11T20:51:43.719Z,0.8
2023-03-11T20:53:43.260Z,0.8
2023-03-11T20:55:43.780Z,0.8
2023-03-11T20:57:44.302Z,0.8
2023-03-11T20:59:43.526Z,0.8
2023-03-11T21:01:47.878Z,301.68
2023-03-11T21:03:45.872Z,301.68
2023-03-11T21:05:47.127Z,301.68
2023-03-11T21:07:43.992Z,0.82
2023-03-11T21:09:44.110Z,0.82
2023-03-11T21:11:44.093Z,0.82
2023-03-11T21:13:43.489Z,306.87
2023-03-11T21:15:44.259Z,306.87
2023-03-11T21:17:44.697Z,306.87
2023-03-11T21:19:46.070Z,0.84
2023-03-11T21:21:43.573Z,0.84
2023-03-11T21:23:44.319Z,0.84
2023-03-11T21:25:44.024Z,317.41
2023-03-11T21:27:44.232Z,317.41
2023-03-11T21:29:43.882Z,317.41
2023-03-11T21:31:45.600Z,317.41
2023-03-11T21:33:45.112Z,317.41
2023-03-11T21:35:44.375Z,317.41
2023-03-11T21:37:44.443Z,317.41
2023-03-11T21:39:47.863Z,317.41
2023-03-11T21:41:43.850Z,0.87
2023-03-11T21:43:43.957Z,0.87
2023-03-11T21:45:44.129Z,0.87
2023-03-11T21:47:44.677Z,0.87
2023-03-11T21:49:44.816Z,0.89
2023-03-11T21:51:43.579Z,0.89
2023-03-11T21:53:45.206Z,0.9
2023-03-11T21:55:43.944Z,333.67
2023-03-11T21:57:44.259Z,333.67
2023-03-11T21:59:46.235Z,0.9
2023-03-11T22:01:47.887Z,0.9
2023-03-11T22:03:44.741Z,0.9
2023-03-11T22:05:44.536Z,0.89
2023-03-11T22:07:44.496Z,0.89
2023-03-11T22:09:44.397Z,0.89
2023-03-11T22:11:43.911Z,328.19
2023-03-11T22:13:43.673Z,328.19
2023-03-11T22:15:44.440Z,328.19
2023-03-11T22:17:44.827Z,0.89
2023-03-11T22:19:44.644Z,328.19
2023-03-11T22:21:45.242Z,328.19
2023-03-11T22:23:43.845Z,328.19
2023-03-11T22:25:42.749Z,0.89
2023-03-11T22:27:43.162Z,0.89
2023-03-11T22:29:43.387Z,0.89
2023-03-11T22:31:43.421Z,328.19
2023-03-11T22:33:44.201Z,328.19
2023-03-11T22:35:43.255Z,0.89
2023-03-11T22:37:43.835Z,0.89
2023-03-11T22:39:43.199Z,0.89
2023-03-11T22:41:43.540Z,0.89
2023-03-11T22:43:42.908Z,0.89
2023-03-11T22:45:43.504Z,0.89
2023-03-11T22:47:44.280Z,0.89
2023-03-11T22:49:43.280Z,328.19
2023-03-11T22:51:42.929Z,328.19
2023-03-11T22:53:43.505Z,0.89
2023-03-11T22:55:43.068Z,0.89
2023-03-11T22:57:43.149Z,0.89
2023-03-11T22:59:43.782Z,0.87
2023-03-11T23:01:43.452Z,0.87
2023-03-11T23:03:43.592Z,0.87
2023-03-11T23:05:43.451Z,317.41
2023-03-11T23:07:42.813Z,0.86
2023-03-11T23:09:43.319Z,0.86
2023-03-11T23:11:42.716Z,306.87
2023-03-11T23:13:43.244Z,306.87
2023-03-11T23:16:01.123Z,306.87
2023-03-11T23:17:44.007Z,0.8
2023-03-11T23:19:42.758Z,301.68
2023-03-11T23:21:43.191Z,301.68
2023-03-11T23:23:42.905Z,296.56
2023-03-11T23:25:43.432Z,296.56
2023-03-11T23:27:42.763Z,296.56
2023-03-11T23:29:43.224Z,0.8
2023-03-11T23:31:43.769Z,0.79
2023-03-11T23:33:43.570Z,0.79
2023-03-11T23:35:43.580Z,296.56
2023-03-11T23:37:42.981Z,0.8
2023-03-11T23:39:43.519Z,0.8
2023-03-11T23:41:42.750Z,0.8
2023-03-11T23:43:56.323Z,296.56
2023-03-11T23:45:42.879Z,296.56
2023-03-11T23:47:43.894Z,0.8
2023-03-11T23:49:42.792Z,0.8
2023-03-11T23:51:43.272Z,0.8
2023-03-11T23:53:43.148Z,0.82
2023-03-11T23:55:43.255Z,301.68
2023-03-11T23:57:42.820Z,301.68
2023-03-11T23:59:43.353Z,301.68
